Time;durP1;ratioP1;P1;durP2;ratioP2;P2;SDS_P1;SDS_P2;PMS_P1;PMS_P2;Temp;Humidity;BMP_temperature;BMP_pressure;BME280_temperature;BME280_humidity;BME280_pressure;Samples;Min_cycle;Max_cycle;Signal;HPM_P1;HPM_P2
2023/05/06 00:02:08;;;;;;;1.58;1.48;;;21.70;55.00;;;;;;5066939;28;45312;-67
2023/05/06 00:04:35;;;;;;;1.70;1.60;;;21.70;55.00;;;;;;5067244;28;45298;-67
2023/05/06 00:07:01;;;;;;;2.22;1.52;;;21.70;55.10;;;;;;5067304;28;45395;-67
2023/05/06 00:09:28;;;;;;;1.73;1.38;;;21.70;55.00;;;;;;5066784;28;45345;-67
2023/05/06 00:11:55;;;;;;;1.85;1.75;;;21.70;55.00;;;;;;5066874;28;45404;-66
2023/05/06 00:14:22;;;;;;;1.88;1.48;;;21.70;55.20;;;;;;5067088;28;45380;-67
2023/05/06 00:16:50;;;;;;;1.70;1.60;;;21.70;55.10;;;;;;5067227;28;45207;-67
2023/05/06 00:19:17;;;;;;;1.98;1.58;;;21.70;55.20;;;;;;5066791;28;45334;-66
2023/05/06 00:21:44;;;;;;;1.70;1.58;;;21.60;55.10;;;;;;5066723;28;45388;-67
2023/05/06 00:24:11;;;;;;;1.83;1.73;;;21.70;55.40;;;;;;5066969;28;45266;-67
2023/05/06 00:26:38;;;;;;;2.03;1.50;;;21.60;55.30;;;;;;5066704;28;45236;-67
2023/05/06 00:29:04;;;;;;;2.10;1.70;;;21.60;55.20;;;;;;5066629;28;47350;-67
2023/05/06 00:31:31;;;;;;;2.70;1.83;;;21.60;55.10;;;;;;5066418;28;45411;-67
2023/05/06 00:33:59;;;;;;;1.65;1.50;;;21.60;55.00;;;;;;5066866;28;45358;-67
2023/05/06 00:36:26;;;;;;;1.88;1.77;;;21.60;55.40;;;;;;5066868;28;45368;-67
2023/05/06 00:38:53;;;;;;;1.70;1.60;;;21.60;55.30;;;;;;5066471;28;46509;-67
2023/05/06 00:41:20;;;;;;;2.15;1.95;;;21.60;55.30;;;;;;5066295;28;45413;-67
2023/05/06 00:43:47;;;;;;;2.15;1.73;;;21.60;55.20;;;;;;5066625;28;45403;-66
2023/05/06 00:46:13;;;;;;;1.77;1.42;;;21.50;55.30;;;;;;5066846;28;45436;-67
2023/05/06 00:48:40;;;;;;;1.63;1.52;;;21.50;55.20;;;;;;5066204;28;45376;-66
2023/05/06 00:51:08;;;;;;;1.63;1.52;;;21.50;55.10;;;;;;5066294;28;45331;-67
2023/05/06 00:53:35;;;;;;;2.10;1.50;;;21.50;55.20;;;;;;5066452;28;45190;-67
2023/05/06 00:56:02;;;;;;;1.73;1.63;;;21.50;55.20;;;;;;5066617;28;45395;-67
2023/05/06 00:58:29;;;;;;;1.70;1.60;;;21.50;55.20;;;;;;5066138;28;45359;-67
2023/05/06 01:00:56;;;;;;;2.05;1.77;;;21.40;55.30;;;;;;5066088;28;45518;-67
2023/05/06 01:03:23;;;;;;;1.45;1.35;;;21.40;55.30;;;;;;5066335;28;45499;-66
2023/05/06 01:05:53;;;;;;;2.53;1.70;;;21.50;55.30;;;;;;5066477;28;45318;-67
2023/05/06 01:08:25;;;;;;;1.60;1.50;;;21.40;55.30;;;;;;5066083;28;46405;-67
2023/05/06 01:10:53;;;;;;;1.83;1.52;;;21.40;55.40;;;;;;5065991;28;45336;-67
2023/05/06 01:13:23;;;;;;;1.85;1.73;;;21.40;55.30;;;;;;5066144;28;45309;-67
2023/05/06 01:15:52;;;;;;;2.53;1.65;;;21.40;55.40;;;;;;5066270;28;45459;-66
2023/05/06 01:18:21;;;;;;;2.05;1.63;;;21.40;55.30;;;;;;5065739;28;46415;-67
2023/05/06 01:20:49;;;;;;;2.63;1.70;;;21.40;55.30;;;;;;5065963;28;45288;-66
2023/05/06 01:23:17;;;;;;;2.10;1.77;;;21.40;55.40;;;;;;5066049;28;45410;-66
2023/05/06 01:25:44;;;;;;;1.48;1.38;;;21.30;55.40;;;;;;5065939;28;45310;-66
2023/05/06 01:28:11;;;;;;;1.52;1.42;;;21.30;55.30;;;;;;5065499;28;45445;-66
2023/05/06 01:30:40;;;;;;;1.65;1.55;;;21.30;55.40;;;;;;5065888;28;45484;-66
2023/05/06 01:33:09;;;;;;;1.60;1.50;;;21.30;55.30;;;;;;5065794;28;45261;-66
2023/05/06 01:35:40;;;;;;;1.45;1.35;;;21.30;55.40;;;;;;5066075;28;45370;-66
2023/05/06 01:38:12;;;;;;;1.50;1.40;;;21.30;55.40;;;;;;5064849;28;46693;-67
2023/05/06 01:40:41;;;;;;;1.60;1.50;;;21.20;55.30;;;;;;5065545;28;45337;-66
2023/05/06 01:43:08;;;;;;;1.67;1.58;;;21.20;55.40;;;;;;5063055;28;45253;-67
2023/05/06 01:45:35;;;;;;;1.70;1.60;;;21.20;55.30;;;;;;5065826;28;45340;-66
2023/05/06 01:48:02;;;;;;;1.80;1.70;;;21.20;55.40;;;;;;5065475;28;45370;-67
2023/05/06 01:50:29;;;;;;;1.40;1.30;;;21.20;55.40;;;;;;5065498;28;45288;-66
2023/05/06 01:52:57;;;;;;;2.80;1.52;;;21.20;55.40;;;;;;5065479;28;45288;-66
2023/05/06 01:55:24;;;;;;;1.60;1.50;;;21.20;55.50;;;;;;5066080;28;45448;-67
2023/05/06 01:57:52;;;;;;;1.67;1.55;;;21.20;55.40;;;;;;5065310;28;46755;-67
2023/05/06 02:00:19;;;;;;;1.15;1.10;;;21.20;55.50;;;;;;5065445;28;45347;-66
2023/05/06 02:02:46;;;;;;;1.40;1.30;;;21.20;55.40;;;;;;5065508;28;45408;-66
2023/05/06 02:05:13;;;;;;;1.67;1.50;;;21.10;55.40;;;;;;5065655;28;45352;-67
2023/05/06 02:07:40;;;;;;;1.60;1.50;;;21.10;55.50;;;;;;5065094;28;46677;-66
2023/05/06 02:10:08;;;;;;;1.88;1.60;;;21.10;55.50;;;;;;5065242;28;45294;-66
2023/05/06 02:12:35;;;;;;;1.52;1.42;;;21.10;55.50;;;;;;5065205;28;45321;-66
2023/05/06 02:15:03;;;;;;;1.92;1.83;;;21.00;55.50;;;;;;5065437;28;45221;-66
2023/05/06 02:17:30;;;;;;;1.73;1.40;;;21.10;55.50;;;;;;5064984;28;45312;-66
2023/05/06 02:19:57;;;;;;;1.75;1.35;;;21.00;55.50;;;;;;5065057;28;45417;-67
2023/05/06 02:22:24;;;;;;;1.52;1.42;;;21.00;55.50;;;;;;5065213;28;45262;-66
2023/05/06 02:24:50;;;;;;;1.58;1.48;;;21.00;55.60;;;;;;5065201;28;45493;-66
2023/05/06 02:27:17;;;;;;;1.48;1.38;;;21.00;55.60;;;;;;5064647;28;46466;-67
2023/05/06 02:29:44;;;;;;;1.55;1.45;;;21.00;55.50;;;;;;5065270;28;45416;-66
2023/05/06 02:32:13;;;;;;;1.30;1.20;;;20.90;55.50;;;;;;5065003;28;45395;-66
2023/05/06 02:34:39;;;;;;;1.70;1.60;;;20.90;55.50;;;;;;5065361;28;45390;-66
2023/05/06 02:37:06;;;;;;;1.50;1.40;;;21.00;55.60;;;;;;5064808;28;46428;-68
2023/05/06 02:39:33;;;;;;;1.50;1.40;;;20.90;55.50;;;;;;5064917;28;45317;-69
2023/05/06 02:42:00;;;;;;;3.60;1.60;;;20.90;55.50;;;;;;5064930;28;45427;-69
2023/05/06 02:44:26;;;;;;;1.75;1.58;;;20.90;55.60;;;;;;5065131;28;45306;-69
2023/05/06 02:46:53;;;;;;;1.70;1.55;;;20.90;55.50;;;;;;5064687;28;45249;-66
2023/05/06 02:49:21;;;;;;;1.55;1.30;;;20.80;55.50;;;;;;5065053;28;45310;-69
2023/05/06 02:51:48;;;;;;;1.50;1.40;;;20.80;55.50;;;;;;5068383;28;45533;-69
2023/05/06 02:54:15;;;;;;;1.70;1.60;;;20.90;55.50;;;;;;5068663;28;45314;-66
2023/05/06 02:56:42;;;;;;;3.72;1.40;;;20.90;55.60;;;;;;5068047;28;45246;-66
2023/05/06 02:59:09;;;;;;;1.48;1.38;;;20.80;55.60;;;;;;5067997;28;45296;-66
2023/05/06 03:01:36;;;;;;;2.30;1.70;;;20.80;55.50;;;;;;5068058;28;45356;-66
2023/05/06 03:04:02;;;;;;;1.40;1.30;;;20.80;55.50;;;;;;5065903;28;45316;-67
2023/05/06 03:06:31;;;;;;;1.33;1.17;;;20.80;55.60;;;;;;5068052;28;45456;-66
2023/05/06 03:08:58;;;;;;;1.50;1.40;;;20.80;55.60;;;;;;5068065;28;45367;-69
2023/05/06 03:11:25;;;;;;;1.65;1.50;;;20.80;55.60;;;;;;5067987;28;45337;-69
2023/05/06 03:13:51;;;;;;;1.50;1.40;;;20.70;55.60;;;;;;5068169;28;45375;-66
2023/05/06 03:16:18;;;;;;;1.75;1.40;;;20.70;55.60;;;;;;5067801;28;46375;-66
2023/05/06 03:18:45;;;;;;;1.35;1.25;;;20.70;55.70;;;;;;5067772;28;45359;-66
2023/05/06 03:21:12;;;;;;;1.50;1.40;;;20.70;55.60;;;;;;5067864;28;45310;-66
2023/05/06 03:23:40;;;;;;;1.52;1.42;;;20.70;55.70;;;;;;5068009;28;45476;-66
2023/05/06 03:26:07;;;;;;;1.60;1.50;;;20.70;55.60;;;;;;5067617;28;45250;-66
2023/05/06 03:28:34;;;;;;;2.15;1.48;;;20.70;55.60;;;;;;5067488;28;45337;-66
2023/05/06 03:31:01;;;;;;;1.30;1.20;;;20.70;55.70;;;;;;5067781;28;45558;-66
2023/05/06 03:33:27;;;;;;;1.50;1.40;;;20.70;55.60;;;;;;5067821;28;45518;-67
2023/05/06 03:35:54;;;;;;;1.48;1.35;;;20.70;55.70;;;;;;5067462;28;45300;-69
2023/05/06 03:38:21;;;;;;;1.58;1.45;;;20.70;55.70;;;;;;5067498;28;45381;-67
2023/05/06 03:40:49;;;;;;;1.83;1.42;;;20.60;55.60;;;;;;5067633;28;45241;-66
2023/05/06 03:43:16;;;;;;;1.40;1.30;;;20.60;55.70;;;;;;5067759;28;45349;-66
2023/05/06 03:45:43;;;;;;;1.50;1.40;;;20.60;55.60;;;;;;5067388;28;46404;-66
2023/05/06 03:48:09;;;;;;;1.33;1.23;;;20.60;55.60;;;;;;5067304;28;45261;-66
2023/05/06 03:50:36;;;;;;;1.80;1.50;;;20.60;55.80;;;;;;5067343;28;45367;-67
2023/05/06 03:53:03;;;;;;;1.55;1.33;;;20.60;55.80;;;;;;5067872;28;45393;-69
2023/05/06 03:55:30;;;;;;;1.50;1.40;;;20.60;55.70;;;;;;5067197;28;47294;-69
2023/05/06 03:57:58;;;;;;;1.40;1.30;;;20.60;55.70;;;;;;5067087;28;45332;-69
2023/05/06 04:00:25;;;;;;;1.25;1.15;;;20.60;55.60;;;;;;5067342;28;45283;-69
2023/05/06 04:02:52;;;;;;;1.35;1.25;;;20.60;55.80;;;;;;5066796;28;45423;-69
2023/05/06 04:05:18;;;;;;;1.92;1.30;;;20.60;56.40;;;;;;5067014;28;45337;-69
2023/05/06 04:07:45;;;;;;;1.40;1.30;;;20.60;55.80;;;;;;5066936;28;45426;-69
2023/05/06 04:10:12;;;;;;;2.05;1.35;;;20.60;55.60;;;;;;5067203;28;45425;-69
2023/05/06 04:12:39;;;;;;;1.42;1.33;;;20.50;55.60;;;;;;5067205;28;45432;-69
2023/05/06 04:15:09;;;;;;;1.52;1.40;;;20.60;55.80;;;;;;5066823;28;45246;-69
2023/05/06 04:17:35;;;;;;;1.55;1.45;;;20.50;55.70;;;;;;5066879;28;45323;-69
2023/05/06 04:20:10;;;;;;;1.55;1.45;;;20.50;56.30;;;;;;5067079;28;45393;-69
2023/05/06 04:22:36;;;;;;;1.45;1.35;;;20.50;55.70;;;;;;5067025;28;45389;-69
2023/05/06 04:25:03;;;;;;;1.50;1.40;;;20.50;55.80;;;;;;5066805;28;48575;-68
2023/05/06 04:27:31;;;;;;;1.15;1.13;;;20.50;55.80;;;;;;5066610;28;45565;-69
2023/05/06 04:29:57;;;;;;;1.40;1.30;;;20.50;55.80;;;;;;5066826;28;45328;-69
2023/05/06 04:32:25;;;;;;;1.10;1.10;;;20.50;55.60;;;;;;5066881;28;45259;-69
2023/05/06 04:34:52;;;;;;;1.73;1.40;;;20.50;55.80;;;;;;5066598;28;46521;-69
2023/05/06 04:37:20;;;;;;;1.40;1.30;;;20.50;55.80;;;;;;5066432;28;45357;-69
2023/05/06 04:39:46;;;;;;;1.25;1.20;;;20.50;55.80;;;;;;5066410;28;45374;-69
2023/05/06 04:42:13;;;;;;;2.28;1.52;;;20.50;55.70;;;;;;5066740;28;45194;-69
2023/05/06 04:44:40;;;;;;;1.42;1.20;;;20.50;55.70;;;;;;5066298;28;46604;-69
2023/05/06 04:47:07;;;;;;;1.30;1.30;;;20.50;55.80;;;;;;5066454;28;45374;-69
2023/05/06 04:49:35;;;;;;;1.40;1.30;;;20.50;55.70;;;;;;5066543;28;45339;-69
2023/05/06 04:52:03;;;;;;;1.45;1.35;;;20.50;55.70;;;;;;5064004;28;45346;-69
2023/05/06 04:54:29;;;;;;;2.25;1.40;;;20.50;55.70;;;;;;5066314;28;47032;-69
2023/05/06 04:56:56;;;;;;;1.65;1.20;;;20.50;55.60;;;;;;5066343;28;45341;-69
2023/05/06 04:59:23;;;;;;;1.48;1.20;;;20.50;55.60;;;;;;5066350;28;45253;-69
2023/05/06 05:01:50;;;;;;;1.30;1.20;;;20.50;55.60;;;;;;5066525;28;45296;-69
2023/05/06 05:04:16;;;;;;;2.78;1.45;;;20.50;55.50;;;;;;5066084;28;45345;-69
2023/05/06 05:06:45;;;;;;;1.45;1.35;;;20.50;55.50;;;;;;5066220;28;45175;-69
2023/05/06 05:09:11;;;;;;;1.17;1.17;;;20.50;55.60;;;;;;5066283;28;45486;-68
2023/05/06 05:11:38;;;;;;;1.50;1.40;;;20.50;55.50;;;;;;5066250;28;45527;-69
2023/05/06 05:14:05;;;;;;;1.92;1.33;;;20.50;55.60;;;;;;5064848;28;46459;-69
2023/05/06 05:16:32;;;;;;;1.27;1.27;;;20.50;55.50;;;;;;5066025;28;45289;-69
2023/05/06 05:18:59;;;;;;;1.55;1.40;;;20.50;55.50;;;;;;5066052;28;45252;-69
2023/05/06 05:21:26;;;;;;;1.42;1.33;;;20.50;55.50;;;;;;5066255;28;45568;-69
2023/05/06 05:23:54;;;;;;;1.92;1.40;;;20.50;55.50;;;;;;5065825;28;47298;-69
2023/05/06 05:26:21;;;;;;;1.33;1.23;;;20.50;55.50;;;;;;5065943;28;45256;-69
2023/05/06 05:28:48;;;;;;;1.50;1.40;;;20.50;55.60;;;;;;5065934;28;45267;-69
2023/05/06 05:31:14;;;;;;;1.40;1.30;;;20.50;55.50;;;;;;5065938;28;45262;-70
2023/05/06 05:33:41;;;;;;;1.10;1.10;;;20.50;56.10;;;;;;5065564;28;48073;-69
2023/05/06 05:36:08;;;;;;;1.45;1.35;;;20.50;55.60;;;;;;5065630;28;45399;-69
2023/05/06 05:38:35;;;;;;;1.50;1.40;;;20.50;55.50;;;;;;5065785;28;45385;-69
2023/05/06 05:41:04;;;;;;;1.17;1.13;;;20.50;55.50;;;;;;5065817;28;45289;-69
2023/05/06 05:43:30;;;;;;;1.20;1.20;;;20.50;55.50;;;;;;5065307;28;47451;-69
2023/05/06 05:45:57;;;;;;;1.30;1.20;;;20.50;55.50;;;;;;5065876;28;45390;-69
2023/05/06 05:48:24;;;;;;;1.70;1.20;;;20.50;55.50;;;;;;5065745;28;45341;-69
2023/05/06 05:50:51;;;;;;;2.50;1.38;;;20.50;55.40;;;;;;5065795;28;45372;-69
2023/05/06 05:53:17;;;;;;;1.05;1.02;;;20.50;55.40;;;;;;5065246;28;45320;-68
2023/05/06 05:55:44;;;;;;;1.52;1.42;;;20.50;55.40;;;;;;5065497;28;45294;-69
2023/05/06 05:58:12;;;;;;;1.40;1.30;;;20.50;55.40;;;;;;5065515;28;45404;-69
2023/05/06 06:00:39;;;;;;;1.00;1.00;;;20.50;55.40;;;;;;5065639;28;45356;-69
2023/05/06 06:03:06;;;;;;;1.15;1.15;;;20.50;55.40;;;;;;5065134;28;45487;-69
2023/05/06 06:05:33;;;;;;;1.10;1.00;;;20.50;55.40;;;;;;5065321;28;45309;-69
2023/05/06 06:08:00;;;;;;;1.40;1.30;;;20.50;55.50;;;;;;5065278;28;45362;-69
2023/05/06 06:10:26;;;;;;;1.30;1.20;;;20.50;55.50;;;;;;5065507;28;45349;-69
2023/05/06 06:12:53;;;;;;;1.23;1.13;;;20.50;55.50;;;;;;5065071;28;47293;-69
2023/05/06 06:15:21;;;;;;;1.40;1.27;;;20.50;55.40;;;;;;5065140;28;45422;-69
2023/05/06 06:17:48;;;;;;;1.13;1.13;;;20.50;55.40;;;;;;5065297;28;45251;-69
2023/05/06 06:20:15;;;;;;;1.70;1.20;;;20.50;55.40;;;;;;5065171;28;45424;-69
2023/05/06 06:22:42;;;;;;;1.13;1.13;;;20.50;55.50;;;;;;5064792;28;46417;-69
2023/05/06 06:25:09;;;;;;;1.13;1.02;;;20.50;55.50;;;;;;5066548;28;45413;-69
2023/05/06 06:27:36;;;;;;;1.38;1.27;;;20.50;55.50;;;;;;5068471;28;45471;-69
2023/05/06 06:30:03;;;;;;;1.50;1.40;;;20.50;55.50;;;;;;5068762;28;45551;-69
2023/05/06 06:32:31;;;;;;;1.10;1.10;;;20.50;55.40;;;;;;5068341;28;46370;-69
2023/05/06 06:34:58;;;;;;;1.38;1.27;;;20.50;55.40;;;;;;5068408;28;45706;-69
2023/05/06 06:37:25;;;;;;;1.30;1.20;;;20.50;55.40;;;;;;5068587;28;45474;-69
2023/05/06 06:39:52;;;;;;;1.10;1.10;;;20.60;55.40;;;;;;5068555;28;45329;-69
2023/05/06 06:42:19;;;;;;;2.03;1.50;;;20.50;55.30;;;;;;5068118;28;47268;-69
2023/05/06 06:44:45;;;;;;;1.33;1.20;;;20.60;55.40;;;;;;5068414;28;45238;-67
2023/05/06 06:47:12;;;;;;;1.50;1.40;;;20.60;55.50;;;;;;5068565;28;45463;-69
2023/05/06 06:49:40;;;;;;;2.15;1.23;;;20.60;55.50;;;;;;5068634;28;45294;-69
2023/05/06 06:52:07;;;;;;;1.48;1.38;;;20.60;55.50;;;;;;5068056;28;46407;-69
2023/05/06 06:54:34;;;;;;;1.50;1.40;;;20.60;55.60;;;;;;5068192;28;45333;-69
2023/05/06 06:57:01;;;;;;;1.38;1.27;;;20.60;55.50;;;;;;5068207;28;45284;-69
2023/05/06 06:59:27;;;;;;;2.08;1.45;;;20.60;55.50;;;;;;5068281;28;45563;-69
2023/05/06 07:01:54;;;;;;;1.48;1.38;;;20.60;55.50;;;;;;5067891;28;45367;-69
2023/05/06 07:04:21;;;;;;;1.13;1.05;;;20.60;55.40;;;;;;5068070;28;45317;-69
2023/05/06 07:06:49;;;;;;;1.40;1.27;;;20.60;55.40;;;;;;5068168;28;45355;-69
2023/05/06 07:09:16;;;;;;;1.23;1.20;;;20.60;55.50;;;;;;5068245;28;45255;-69
2023/05/06 07:11:43;;;;;;;1.40;1.30;;;20.60;55.40;;;;;;5067758;28;46370;-68
2023/05/06 07:14:10;;;;;;;1.67;1.58;;;20.70;55.50;;;;;;5067818;28;45309;-70
2023/05/06 07:16:37;;;;;;;1.67;1.58;;;20.70;56.40;;;;;;5068052;28;45194;-69
2023/05/06 07:19:04;;;;;;;2.40;2.10;;;20.70;56.90;;;;;;5067990;28;45332;-70
2023/05/06 07:21:31;;;;;;;5.22;2.40;;;20.70;57.40;;;;;;5067435;28;46418;-70
2023/05/06 07:23:59;;;;;;;4.70;2.30;;;20.70;57.90;;;;;;5067705;28;45299;-69
2023/05/06 07:26:26;;;;;;;8.00;2.85;;;20.70;58.00;;;;;;5067987;28;45394;-70
2023/05/06 07:28:53;;;;;;;6.63;2.75;;;20.70;57.90;;;;;;5067724;28;45238;-69
2023/05/06 07:31:20;;;;;;;4.13;2.33;;;20.70;58.00;;;;;;5067613;28;46169;-71
2023/05/06 07:33:47;;;;;;;2.83;2.42;;;20.80;58.40;;;;;;5067601;28;45728;-71
2023/05/06 07:36:13;;;;;;;4.50;2.92;;;20.80;58.10;;;;;;5066641;28;45295;-70
2023/05/06 07:38:40;;;;;;;3.75;2.50;;;20.80;58.00;;;;;;5067730;28;45412;-69
2023/05/06 07:41:09;;;;;;;15.23;3.08;;;20.80;57.80;;;;;;5063588;28;46660;-68
2023/05/06 07:43:36;;;;;;;6.45;2.42;;;20.80;59.10;;;;;;5067167;28;45332;-69
2023/05/06 07:46:03;;;;;;;5.35;2.67;;;20.80;58.80;;;;;;5067287;28;45338;-69
2023/05/06 07:48:29;;;;;;;5.32;2.72;;;20.80;58.40;;;;;;5067442;28;45401;-69
2023/05/06 07:50:56;;;;;;;6.53;2.75;;;20.90;58.60;;;;;;5066829;28;46429;-68
2023/05/06 07:53:23;;;;;;;14.43;2.97;;;20.90;58.90;;;;;;5067210;28;45274;-69
2023/05/06 07:55:51;;;;;;;12.68;2.95;;;20.90;58.40;;;;;;5066844;28;45321;-69
2023/05/06 07:58:19;;;;;;;5.28;3.15;;;20.90;58.70;;;;;;5067085;28;45530;-67
2023/05/06 08:00:46;;;;;;;3.97;2.30;;;20.90;58.70;;;;;;5066709;28;46413;-68
2023/05/06 08:03:13;;;;;;;4.65;2.10;;;20.90;58.50;;;;;;5066642;28;45329;-67
2023/05/06 08:05:39;;;;;;;4.35;2.55;;;20.90;58.90;;;;;;5063612;28;45417;-70
2023/05/06 08:08:06;;;;;;;8.23;2.88;;;21.00;60.00;;;;;;5066523;28;45251;-68
2023/05/06 08:10:33;;;;;;;5.80;2.80;;;21.00;61.00;;;;;;5066568;28;47308;-70
2023/05/06 08:13:00;;;;;;;5.97;2.70;;;21.10;61.40;;;;;;5066496;28;45318;-67
2023/05/06 08:15:28;;;;;;;4.20;2.90;;;21.10;61.50;;;;;;5066909;28;45328;-65
2023/05/06 08:17:56;;;;;;;5.15;2.40;;;21.20;62.20;;;;;;5067127;28;45252;-69
2023/05/06 08:20:23;;;;;;;6.82;2.28;;;21.20;62.00;;;;;;5066121;28;48637;-69
2023/05/06 08:22:50;;;;;;;2.80;2.30;;;21.30;62.10;;;;;;5066662;28;45385;-69
2023/05/06 08:25:17;;;;;;;7.55;2.70;;;21.30;62.10;;;;;;5066657;28;45403;-68
2023/05/06 08:27:44;;;;;;;6.70;2.72;;;21.40;62.10;;;;;;5066640;28;45404;-67
2023/05/06 08:30:12;;;;;;;7.68;2.45;;;21.40;62.20;;;;;;5066243;28;46545;-69
2023/05/06 08:32:40;;;;;;;4.25;2.85;;;21.50;62.20;;;;;;5065200;28;45322;-70
2023/05/06 08:35:07;;;;;;;4.00;2.47;;;21.50;62.30;;;;;;5066600;28;45528;-67
2023/05/06 08:37:34;;;;;;;4.75;2.92;;;21.50;61.50;;;;;;5066829;28;45312;-66
2023/05/06 08:40:01;;;;;;;6.28;2.95;;;21.50;59.10;;;;;;5066148;28;45457;-67
2023/05/06 08:42:28;;;;;;;4.93;3.20;;;21.50;59.00;;;;;;5066405;28;45258;-65
2023/05/06 08:44:55;;;;;;;5.05;3.95;;;21.50;59.00;;;;;;5066341;28;45393;-65
2023/05/06 08:47:21;;;;;;;5.18;3.25;;;21.50;59.00;;;;;;5066253;28;45417;-65
2023/05/06 08:49:50;;;;;;;3.58;3.28;;;21.50;58.80;;;;;;5065447;28;46416;-64
2023/05/06 08:52:16;;;;;;;4.55;3.30;;;21.40;58.70;;;;;;5065982;28;45257;-65
2023/05/06 08:54:43;;;;;;;3.50;3.20;;;21.40;58.90;;;;;;5066014;28;45418;-66
2023/05/06 08:57:11;;;;;;;4.70;3.13;;;21.40;59.10;;;;;;5066082;28;45319;-65
2023/05/06 08:59:38;;;;;;;4.22;3.08;;;21.40;58.90;;;;;;5064302;28;46752;-66
2023/05/06 09:02:05;;;;;;;3.47;3.10;;;21.40;59.40;;;;;;5065798;28;45266;-65
2023/05/06 09:04:31;;;;;;;5.57;3.00;;;21.30;59.20;;;;;;5065767;28;45393;-66
2023/05/06 09:07:00;;;;;;;3.00;2.80;;;21.40;59.00;;;;;;5066087;28;45332;-66
2023/05/06 09:09:26;;;;;;;2.92;2.50;;;21.40;59.30;;;;;;5065922;28;46395;-65
2023/05/06 09:11:56;;;;;;;2.65;2.35;;;21.40;58.60;;;;;;5065502;28;45332;-66
2023/05/06 09:14:23;;;;;;;4.57;2.80;;;21.40;58.40;;;;;;5065872;28;45251;-66
2023/05/06 09:16:51;;;;;;;4.43;2.80;;;21.40;58.20;;;;;;5066150;28;45401;-66
2023/05/06 09:19:18;;;;;;;3.08;2.80;;;21.40;58.20;;;;;;5065778;28;45371;-66
2023/05/06 09:21:45;;;;;;;3.10;2.80;;;21.40;58.40;;;;;;5065615;28;45339;-66
2023/05/06 09:24:14;;;;;;;3.65;2.78;;;21.30;58.50;;;;;;5065852;28;45383;-66
2023/05/06 09:26:42;;;;;;;4.03;2.75;;;21.40;58.70;;;;;;5066029;28;45313;-65
2023/05/06 09:29:09;;;;;;;3.83;2.38;;;21.40;58.40;;;;;;5065607;28;45365;-65
2023/05/06 09:31:40;;;;;;;3.33;2.40;;;21.40;58.30;;;;;;5064448;28;45272;-67
2023/05/06 09:34:07;;;;;;;2.33;2.13;;;21.40;58.10;;;;;;5065172;28;45348;-66
2023/05/06 09:36:34;;;;;;;7.57;2.92;;;21.50;58.30;;;;;;5065634;28;45451;-66
2023/05/06 09:39:01;;;;;;;3.25;2.42;;;21.50;58.10;;;;;;5063307;28;45267;-66
2023/05/06 09:41:29;;;;;;;3.50;2.58;;;21.50;57.90;;;;;;5064357;28;45266;-66
2023/05/06 09:43:57;;;;;;;2.42;2.13;;;21.60;58.20;;;;;;5065075;28;45490;-67
2023/05/06 09:46:25;;;;;;;1.80;1.70;;;21.60;58.20;;;;;;5065489;28;45571;-68
2023/05/06 09:48:52;;;;;;;2.17;1.90;;;21.50;56.90;;;;;;5060334;28;45518;-67
2023/05/06 09:51:19;;;;;;;2.45;2.10;;;21.60;56.90;;;;;;5064899;28;45281;-66
2023/05/06 09:53:46;;;;;;;3.90;1.70;;;21.60;57.10;;;;;;5065107;28;45305;-66
2023/05/06 09:56:14;;;;;;;1.73;1.60;;;21.70;57.10;;;;;;5065427;28;45363;-67
2023/05/06 09:58:42;;;;;;;4.35;1.75;;;21.70;57.00;;;;;;5065054;28;45471;-67
2023/05/06 10:01:09;;;;;;;5.65;2.10;;;21.80;57.00;;;;;;5064174;28;45325;-67
2023/05/06 10:03:36;;;;;;;2.75;1.42;;;21.90;57.10;;;;;;5065272;28;45385;-67
2023/05/06 10:06:04;;;;;;;1.90;1.75;;;21.90;56.40;;;;;;5064695;28;45417;-67
2023/05/06 10:08:32;;;;;;;1.60;1.50;;;21.90;56.60;;;;;;5064976;28;47407;-68
2023/05/06 10:10:59;;;;;;;5.70;1.42;;;22.00;56.60;;;;;;5064876;28;45132;-68
2023/05/06 10:13:26;;;;;;;2.97;1.60;;;22.10;55.80;;;;;;5065012;28;45516;-68
2023/05/06 10:15:54;;;;;;;2.60;1.77;;;22.10;56.20;;;;;;5065195;28;45352;-68
2023/05/06 10:18:21;;;;;;;4.55;2.03;;;22.10;56.30;;;;;;5064552;28;48441;-68
2023/05/06 10:20:48;;;;;;;2.53;1.77;;;22.20;56.10;;;;;;5064858;28;45281;-67
2023/05/06 10:23:22;;;;;;;3.28;1.83;;;22.30;56.30;;;;;;5065061;28;45274;-66
2023/05/06 10:25:50;;;;;;;2.72;1.48;;;22.30;56.00;;;;;;5065030;28;45482;-66
2023/05/06 10:28:17;;;;;;;1.70;1.58;;;22.40;55.70;;;;;;5064496;28;45306;-66
2023/05/06 10:30:44;;;;;;;3.63;1.77;;;22.40;55.60;;;;;;5064687;28;45442;-65
2023/05/06 10:33:12;;;;;;;1.40;1.30;;;22.40;55.00;;;;;;5064165;28;45280;-65
2023/05/06 10:35:44;;;;;;;2.40;1.80;;;22.40;55.20;;;;;;5064283;28;45408;-66
2023/05/06 10:38:13;;;;;;;2.97;1.33;;;22.40;55.40;;;;;;5064527;28;46507;-65
2023/05/06 10:40:40;;;;;;;1.48;1.38;;;22.50;55.50;;;;;;5067976;28;45253;-66
2023/05/06 10:43:20;;;;;;;3.95;1.80;;;22.60;55.60;;;;;;5084898;28;45284;-68
2023/05/06 10:46:02;;;;;;;2.28;1.83;;;22.60;55.50;;;;;;5076095;28;45316;-68
2023/05/06 10:48:30;;;;;;;1.73;1.63;;;22.50;55.30;;;;;;5067978;28;46408;-69
2023/05/06 10:51:23;;;;;;;2.03;1.50;;;22.60;55.10;;;;;;5064459;28;45318;-68
2023/05/06 10:53:57;;;;;;;1.52;1.42;;;22.60;54.90;;;;;;5064624;28;45412;-67
2023/05/06 10:56:23;;;;;;;2.85;1.98;;;22.70;54.90;;;;;;5064867;28;45380;-68
2023/05/06 10:58:50;;;;;;;2.92;1.50;;;22.70;54.70;;;;;;5070579;28;45456;-67
2023/05/06 11:01:18;;;;;;;1.88;1.55;;;22.70;54.80;;;;;;5064418;28;45146;-67
2023/05/06 11:03:46;;;;;;;2.13;1.65;;;22.80;54.60;;;;;;5063101;28;45529;-67
2023/05/06 11:06:13;;;;;;;3.45;1.60;;;22.80;54.10;;;;;;5065100;28;45475;-67
2023/05/06 11:08:40;;;;;;;1.40;1.30;;;22.90;54.00;;;;;;5084176;28;46655;-68
2023/05/06 11:11:40;;;;;;;2.28;1.70;;;22.90;54.00;;;;;;5084561;27;45343;-68
2023/05/06 11:14:12;;;;;;;1.88;1.25;;;23.00;53.80;;;;;;5087217;28;45405;-67
2023/05/06 11:16:48;;;;;;;3.47;1.42;;;23.10;53.70;;;;;;5047692;28;45359;-68
2023/05/06 11:19:20;;;;;;;3.03;1.70;;;23.20;53.50;;;;;;5057610;28;45489;-68
2023/05/06 11:21:47;;;;;;;1.30;1.20;;;23.20;53.40;;;;;;5067222;28;45340;-68
2023/05/06 11:24:14;;;;;;;1.83;1.40;;;23.30;53.10;;;;;;5067929;28;45309;-67
2023/05/06 11:26:42;;;;;;;2.25;1.20;;;23.30;52.90;;;;;;5067312;28;45429;-67
2023/05/06 11:29:08;;;;;;;2.03;1.30;;;23.40;53.00;;;;;;5066042;28;45436;-67
2023/05/06 11:31:39;;;;;;;1.48;1.30;;;23.40;52.50;;;;;;5065408;28;45471;-67
2023/05/06 11:34:07;;;;;;;1.50;1.40;;;23.50;52.20;;;;;;5067151;28;45422;-68
2023/05/06 11:36:36;;;;;;;1.50;1.10;;;23.60;52.60;;;;;;5066575;28;45379;-67
2023/05/06 11:39:05;;;;;;;1.73;1.10;;;23.70;52.40;;;;;;5066982;28;45286;-67
2023/05/06 11:41:32;;;;;;;2.35;1.50;;;23.70;51.70;;;;;;5066264;28;45313;-67
2023/05/06 11:43:59;;;;;;;1.30;1.20;;;23.80;51.60;;;;;;5067345;28;45348;-67
2023/05/06 11:46:26;;;;;;;1.80;1.33;;;23.90;51.50;;;;;;5066883;28;45328;-68
2023/05/06 11:48:53;;;;;;;2.05;1.20;;;23.90;51.50;;;;;;5066645;28;45318;-67
2023/05/06 11:51:21;;;;;;;4.70;1.27;;;24.00;51.50;;;;;;5061954;28;45422;-67
2023/05/06 11:53:50;;;;;;;1.60;1.30;;;24.00;51.90;;;;;;5067162;28;45403;-67
2023/05/06 11:56:17;;;;;;;1.20;1.10;;;24.10;51.30;;;;;;5078669;28;45522;-67
2023/05/06 11:58:43;;;;;;;2.05;1.17;;;24.10;51.40;;;;;;5066495;28;46247;-67
2023/05/06 12:01:10;;;;;;;2.28;1.30;;;24.10;51.30;;;;;;5063258;28;45639;-67
2023/05/06 12:03:37;;;;;;;3.55;1.38;;;24.10;50.40;;;;;;5067074;28;45524;-67
2023/05/06 12:06:04;;;;;;;1.40;1.30;;;24.10;50.10;;;;;;5068081;28;45466;-67
2023/05/06 12:08:32;;;;;;;1.10;1.10;;;24.10;49.80;;;;;;5065197;28;46411;-68
2023/05/06 12:11:01;;;;;;;1.92;1.20;;;24.10;50.50;;;;;;5066809;28;45266;-67
2023/05/06 12:13:28;;;;;;;3.08;1.30;;;24.20;49.80;;;;;;5074644;28;45605;-67
2023/05/06 12:15:55;;;;;;;1.92;1.20;;;24.20;49.50;;;;;;5087367;28;45376;-66
2023/05/06 12:18:22;;;;;;;1.05;1.05;;;24.20;49.60;;;;;;5070167;28;45536;-67
2023/05/06 12:20:49;;;;;;;2.45;1.15;;;24.30;49.70;;;;;;5066359;28;45335;-67
2023/05/06 12:23:16;;;;;;;3.25;1.15;;;24.30;49.40;;;;;;5064687;28;45288;-66
2023/05/06 12:25:43;;;;;;;1.10;1.00;;;24.40;49.30;;;;;;5080478;28;45522;-67
2023/05/06 12:28:15;;;;;;;5.13;1.52;;;24.40;49.10;;;;;;5066277;28;46435;-66
2023/05/06 12:30:42;;;;;;;1.02;1.02;;;24.50;48.60;;;;;;5065843;28;45448;-66
2023/05/06 12:33:10;;;;;;;1.80;1.20;;;24.50;48.60;;;;;;5066597;28;45477;-66
2023/05/06 12:35:37;;;;;;;1.35;1.02;;;24.50;48.90;;;;;;5084339;28;45611;-67
2023/05/06 12:38:10;;;;;;;3.33;1.08;;;24.60;48.10;;;;;;5086614;28;46710;-66
2023/05/06 12:40:37;;;;;;;2.20;1.20;;;24.60;47.10;;;;;;5083232;28;45787;-68
2023/05/06 12:43:04;;;;;;;3.00;1.10;;;24.60;48.40;;;;;;5072078;28;45323;-68
2023/05/06 12:45:32;;;;;;;1.50;1.30;;;24.70;47.00;;;;;;5080113;28;45499;-67
2023/05/06 12:48:00;;;;;;;1.58;1.17;;;24.70;46.30;;;;;;5081887;28;48672;-66